Time;durP1;ratioP1;P1;durP2;ratioP2;P2;SDS_P1;SDS_P2;PMS_P1;PMS_P2;Temp;Humidity;BMP_temperature;BMP_pressure;BME280_temperature;BME280_humidity;BME280_pressure;Samples;Min_cycle;Max_cycle;Signal;HPM_P1;HPM_P2
2021/07/02 04:01:42;;;;;;;28.37;22.30;;;16.30;99.90;;;;;;5436459;22;20545;-63
2021/07/02 04:04:09;;;;;;;30.20;22.00;;;16.30;99.90;;;;;;4994917;28;20482;-66
2021/07/02 04:06:35;;;;;;;32.17;23.07;;;16.30;99.90;;;;;;4982327;28;20549;-66
2021/07/02 04:09:02;;;;;;;32.13;23.50;;;16.30;99.90;;;;;;4995914;28;20462;-66
2021/07/02 04:11:29;;;;;;;32.13;23.10;;;16.30;99.90;;;;;;4977965;28;21024;-67
2021/07/02 04:13:55;;;;;;;32.60;23.83;;;16.30;99.90;;;;;;4974949;28;20483;-67
2021/07/02 04:16:22;;;;;;;32.10;23.30;;;16.30;99.90;;;;;;4988146;28;20971;-66
2021/07/02 04:18:50;;;;;;;35.50;24.00;;;16.30;99.90;;;;;;4975657;28;20460;-66
2021/07/02 04:21:16;;;;;;;33.70;23.70;;;16.30;99.90;;;;;;4987650;28;20474;-66
2021/07/02 04:23:43;;;;;;;24.47;21.87;;;16.40;99.90;;;;;;4989888;28;20459;-64
2021/07/02 04:26:10;;;;;;;29.97;24.17;;;16.30;99.90;;;;;;4982022;28;20495;-64
2021/07/02 04:28:36;;;;;;;28.73;22.93;;;16.40;99.90;;;;;;4981318;28;20471;-64
2021/07/02 04:31:03;;;;;;;34.57;23.87;;;16.40;99.90;;;;;;4983010;28;20487;-64
2021/07/02 04:33:30;;;;;;;25.57;21.00;;;16.40;99.90;;;;;;4986683;28;20943;-65
2021/07/02 04:35:58;;;;;;;29.47;21.73;;;16.50;99.90;;;;;;4981177;28;20456;-64
2021/07/02 04:38:24;;;;;;;28.57;20.10;;;16.60;99.90;;;;;;4985456;28;20479;-64
2021/07/02 04:40:51;;;;;;;25.03;19.67;;;16.60;99.90;;;;;;4982314;28;20890;-64
2021/07/02 04:43:18;;;;;;;23.70;18.43;;;16.50;99.90;;;;;;4983050;28;20474;-63
2021/07/02 04:45:45;;;;;;;24.20;18.63;;;16.60;99.90;;;;;;4983481;28;20590;-63
2021/07/02 04:48:11;;;;;;;22.70;19.87;;;16.60;99.90;;;;;;4975640;28;20530;-64
2021/07/02 04:50:38;;;;;;;23.33;20.80;;;16.70;99.90;;;;;;4984312;28;20565;-64
2021/07/02 04:53:06;;;;;;;22.77;19.50;;;16.80;99.90;;;;;;4988699;28;20460;-62
2021/07/02 04:55:32;;;;;;;21.23;18.20;;;16.80;99.90;;;;;;4982336;28;20527;-64
2021/07/02 04:57:59;;;;;;;20.03;17.93;;;16.90;99.90;;;;;;4978837;28;20467;-65
2021/07/02 05:00:27;;;;;;;22.70;19.70;;;16.80;99.90;;;;;;4984139;28;20484;-64
2021/07/02 05:02:53;;;;;;;19.40;17.27;;;16.90;99.90;;;;;;4975915;28;20789;-64
2021/07/02 05:05:20;;;;;;;21.80;17.50;;;17.20;99.90;;;;;;4985320;28;20510;-64
2021/07/02 05:07:47;;;;;;;21.50;17.57;;;17.30;99.90;;;;;;4992638;28;20490;-64
2021/07/02 05:10:15;;;;;;;18.83;16.83;;;17.60;99.90;;;;;;4990667;28;20463;-64
2021/07/02 05:12:42;;;;;;;18.93;16.93;;;17.90;99.90;;;;;;4991501;28;20459;-65
2021/07/02 05:15:10;;;;;;;20.80;16.20;;;18.00;99.90;;;;;;4981855;28;20458;-65
2021/07/02 05:17:36;;;;;;;17.30;15.60;;;17.90;99.90;;;;;;4978282;28;20455;-64
2021/07/02 05:20:04;;;;;;;19.10;16.53;;;17.80;99.90;;;;;;4975939;28;20455;-64
2021/07/02 05:22:30;;;;;;;18.90;16.07;;;17.80;99.90;;;;;;4988071;28;20590;-65
2021/07/02 05:24:57;;;;;;;20.10;17.57;;;17.60;99.90;;;;;;4982510;28;20463;-65
2021/07/02 05:27:25;;;;;;;18.30;15.43;;;17.50;99.90;;;;;;4974818;28;20484;-64
2021/07/02 05:29:51;;;;;;;19.13;17.10;;;17.40;99.90;;;;;;4975802;28;20455;-65
2021/07/02 05:32:18;;;;;;;18.40;15.07;;;17.40;99.90;;;;;;4973949;28;20544;-64
2021/07/02 05:34:45;;;;;;;19.83;17.33;;;17.40;99.90;;;;;;4982781;28;20935;-64
2021/07/02 05:37:11;;;;;;;22.03;17.00;;;17.30;99.90;;;;;;4993590;28;20467;-64
2021/07/02 05:39:38;;;;;;;18.13;16.27;;;17.40;99.90;;;;;;4993538;28;20462;-65
2021/07/02 05:42:05;;;;;;;24.30;16.27;;;17.30;99.90;;;;;;4975489;28;20491;-65
2021/07/02 05:44:33;;;;;;;25.63;17.20;;;17.30;99.90;;;;;;4981809;28;20948;-65
2021/07/02 05:47:00;;;;;;;20.53;17.93;;;17.40;99.90;;;;;;4990436;28;20483;-65
2021/07/02 05:49:27;;;;;;;21.17;17.53;;;17.40;99.90;;;;;;4993445;28;20871;-64
2021/07/02 05:51:53;;;;;;;22.80;17.07;;;17.40;99.90;;;;;;4987970;28;20488;-65
2021/07/02 05:54:20;;;;;;;19.60;17.23;;;17.30;99.90;;;;;;4973693;28;20479;-65
2021/07/02 05:56:47;;;;;;;20.03;16.37;;;17.40;99.90;;;;;;4976205;28;20538;-65
2021/07/02 05:59:13;;;;;;;21.60;17.93;;;17.40;99.90;;;;;;4992765;28;20466;-65
2021/07/02 06:01:41;;;;;;;18.93;16.97;;;17.40;99.90;;;;;;4977844;28;20575;-65
2021/07/02 06:04:08;;;;;;;20.90;16.20;;;17.50;99.90;;;;;;4992949;28;20541;-65
2021/07/02 06:06:35;;;;;;;19.43;16.60;;;17.40;99.90;;;;;;4991762;28;20894;-65
2021/07/02 06:09:02;;;;;;;18.63;16.73;;;17.40;99.90;;;;;;4993302;28;20500;-65
2021/07/02 06:11:29;;;;;;;19.83;16.87;;;17.40;99.90;;;;;;4979934;28;20553;-65
2021/07/02 06:13:55;;;;;;;22.60;17.50;;;17.50;99.90;;;;;;4975577;28;20885;-65
2021/07/02 06:16:22;;;;;;;18.40;15.40;;;17.60;99.90;;;;;;4974229;28;20480;-65
2021/07/02 06:18:50;;;;;;;20.03;16.10;;;17.70;99.90;;;;;;4973555;28;20549;-65
2021/07/02 06:21:17;;;;;;;21.20;15.70;;;17.80;99.90;;;;;;4976434;28;20492;-65
2021/07/02 06:23:44;;;;;;;23.07;17.10;;;17.90;99.90;;;;;;4978477;28;20542;-65
2021/07/02 06:26:10;;;;;;;17.30;14.40;;;18.00;99.90;;;;;;4981536;28;20479;-64
2021/07/02 06:28:37;;;;;;;16.63;14.50;;;18.30;99.90;;;;;;4982432;28;20871;-64
2021/07/02 06:31:04;;;;;;;17.63;15.40;;;18.40;99.90;;;;;;4979377;28;20534;-64
2021/07/02 06:33:31;;;;;;;17.97;16.13;;;18.60;99.90;;;;;;4988038;28;20463;-65
2021/07/02 06:36:00;;;;;;;16.70;14.90;;;18.70;99.90;;;;;;4988438;28;20463;-64
2021/07/02 06:38:27;;;;;;;17.00;15.20;;;18.90;99.90;;;;;;4993008;28;20477;-65
2021/07/02 06:40:53;;;;;;;18.10;15.40;;;18.90;99.90;;;;;;4990397;28;20489;-64
2021/07/02 06:43:20;;;;;;;14.40;13.20;;;19.00;99.90;;;;;;4979613;28;20571;-64
2021/07/02 06:45:47;;;;;;;18.27;14.77;;;19.70;99.90;;;;;;4975189;28;20492;-65
2021/07/02 06:48:14;;;;;;;16.20;14.60;;;20.40;99.90;;;;;;4973614;28;21019;-66
2021/07/02 06:50:44;;;;;;;17.37;15.67;;;20.80;99.90;;;;;;4975324;28;20486;-66
2021/07/02 06:53:13;;;;;;;16.50;14.80;;;20.60;99.90;;;;;;4984666;28;20459;-65
2021/07/02 06:55:40;;;;;;;15.73;14.17;;;20.30;99.90;;;;;;4980153;28;20471;-65
2021/07/02 06:58:09;;;;;;;16.30;14.53;;;20.20;99.90;;;;;;4973564;28;20841;-66
2021/07/02 07:00:38;;;;;;;17.27;15.50;;;20.10;99.90;;;;;;4974530;28;20540;-66
2021/07/02 07:03:05;;;;;;;16.30;14.80;;;20.10;99.90;;;;;;4983269;28;20571;-66
2021/07/02 07:05:31;;;;;;;17.13;15.23;;;20.20;99.90;;;;;;4983065;28;20479;-65
2021/07/02 07:07:58;;;;;;;15.30;13.87;;;20.50;99.90;;;;;;4983613;28;20586;-66
2021/07/02 07:10:26;;;;;;;16.33;14.70;;;20.90;99.90;;;;;;4984257;28;20490;-67
2021/07/02 07:12:53;;;;;;;15.73;14.20;;;20.90;99.90;;;;;;4988187;28;20466;-67
2021/07/02 07:15:19;;;;;;;16.83;15.00;;;20.70;99.90;;;;;;4976291;28;20808;-67
2021/07/02 07:17:46;;;;;;;14.93;13.53;;;20.50;99.90;;;;;;4972701;28;20937;-66
2021/07/02 07:20:13;;;;;;;14.57;13.27;;;20.30;99.90;;;;;;4973388;28;20484;-67
2021/07/02 07:22:40;;;;;;;17.27;15.40;;;20.40;99.90;;;;;;4975802;28;20479;-66
2021/07/02 07:25:07;;;;;;;14.60;13.10;;;20.70;99.90;;;;;;4979621;28;20472;-66
2021/07/02 07:27:36;;;;;;;14.70;13.20;;;20.90;99.90;;;;;;4988047;28;20560;-66
2021/07/02 07:30:04;;;;;;;15.43;13.93;;;21.10;99.90;;;;;;4972191;28;20464;-66
2021/07/02 07:32:31;;;;;;;15.80;14.43;;;21.00;99.90;;;;;;4986125;28;20498;-67
2021/07/02 07:35:00;;;;;;;15.23;13.47;;;20.80;99.90;;;;;;4989801;28;20470;-66
2021/07/02 07:37:29;;;;;;;15.00;13.80;;;20.60;99.90;;;;;;4979907;28;20470;-66
2021/07/02 07:39:55;;;;;;;15.37;13.90;;;20.60;99.90;;;;;;4972503;28;20814;-66
2021/07/02 07:42:22;;;;;;;16.53;14.30;;;20.40;99.90;;;;;;4980773;28;20847;-66
2021/07/02 07:44:50;;;;;;;16.63;14.87;;;20.40;99.90;;;;;;4972877;28;20802;-65
2021/07/02 07:47:17;;;;;;;16.40;14.90;;;20.20;99.90;;;;;;4972476;28;20796;-66
2021/07/02 07:49:45;;;;;;;16.80;15.00;;;20.10;99.90;;;;;;4985808;28;21086;-65
2021/07/02 07:52:15;;;;;;;17.50;14.77;;;20.10;99.90;;;;;;4981534;28;20506;-65
2021/07/02 07:54:42;;;;;;;18.03;15.63;;;20.30;99.90;;;;;;4980237;28;20865;-65
2021/07/02 07:57:09;;;;;;;16.93;14.90;;;20.40;99.90;;;;;;4986205;28;20927;-65
2021/07/02 07:59:36;;;;;;;16.47;14.87;;;20.50;99.90;;;;;;4978601;28;20458;-64
2021/07/02 08:02:04;;;;;;;14.33;13.03;;;21.00;99.90;;;;;;4989378;28;20877;-67
2021/07/02 08:04:31;;;;;;;14.73;13.43;;;21.60;99.90;;;;;;4975809;28;20831;-65
2021/07/02 08:06:58;;;;;;;14.03;12.63;;;22.00;99.90;;;;;;4976969;28;21027;-67
2021/07/02 08:09:25;;;;;;;15.37;13.87;;;22.10;99.90;;;;;;4975692;28;20825;-66
2021/07/02 08:11:52;;;;;;;16.53;14.97;;;22.10;99.90;;;;;;4975738;28;20521;-66
2021/07/02 08:14:19;;;;;;;14.70;13.50;;;22.10;99.90;;;;;;4974945;28;20801;-66
2021/07/02 08:16:45;;;;;;;14.97;13.00;;;21.90;99.90;;;;;;4977345;28;20974;-65
2021/07/02 08:19:13;;;;;;;15.83;14.33;;;21.70;99.90;;;;;;4974706;28;20967;-67
2021/07/02 08:21:40;;;;;;;15.00;13.70;;;21.70;99.90;;;;;;4975494;28;20492;-67
2021/07/02 08:24:07;;;;;;;17.13;12.80;;;21.90;99.90;;;;;;4974652;28;20472;-66
2021/07/02 08:26:33;;;;;;;14.50;13.20;;;22.00;99.90;;;;;;4974949;28;20526;-67
2021/07/02 08:31:44;;;;;;;15.17;13.63;;;21.90;99.90;;;;;;4976017;28;20963;-67
2021/07/02 08:34:12;;;;;;;14.30;12.90;;;21.40;99.90;;;;;;4985715;28;20507;-66
2021/07/02 08:36:39;;;;;;;15.90;14.30;;;21.00;99.90;;;;;;4977815;28;20992;-67
2021/07/02 08:39:05;;;;;;;14.43;12.90;;;20.60;99.90;;;;;;4991140;28;20466;-67
2021/07/02 08:41:33;;;;;;;13.63;12.33;;;21.10;99.90;;;;;;4976192;28;20484;-68
2021/07/02 08:44:00;;;;;;;12.60;11.30;;;22.00;99.90;;;;;;4974471;28;20821;-67
2021/07/02 08:46:28;;;;;;;12.83;11.73;;;22.60;99.90;;;;;;4978100;28;20544;-67
2021/07/02 08:48:55;;;;;;;14.17;12.80;;;22.70;99.90;;;;;;4992631;28;21028;-67
2021/07/02 08:51:24;;;;;;;12.73;11.67;;;22.70;99.90;;;;;;4992282;28;20491;-66
2021/07/02 08:53:51;;;;;;;13.90;12.50;;;22.30;99.90;;;;;;4991789;28;20462;-67
2021/07/02 08:56:19;;;;;;;12.77;11.47;;;22.00;99.90;;;;;;4975134;28;20464;-67
2021/07/02 08:58:46;;;;;;;12.30;11.30;;;21.90;99.90;;;;;;4974343;28;20467;-66
2021/07/02 09:01:35;;;;;;;11.93;10.90;;;22.40;99.90;;;;;;4989332;28;20503;-67
2021/07/02 09:04:15;;;;;;;13.20;12.07;;;22.30;99.90;;;;;;4991562;28;20881;-67
2021/07/02 09:06:44;;;;;;;13.10;11.93;;;22.40;99.90;;;;;;4992060;28;20470;-67
2021/07/02 09:09:10;;;;;;;12.93;11.73;;;22.10;99.90;;;;;;4991174;28;20468;-67
2021/07/02 09:11:38;;;;;;;13.37;12.07;;;21.80;99.90;;;;;;4990032;28;20483;-67
2021/07/02 09:14:08;;;;;;;13.70;12.20;;;21.50;99.90;;;;;;4973777;28;20475;-67
2021/07/02 09:16:38;;;;;;;13.10;12.00;;;21.50;99.90;;;;;;4975306;28;20946;-67
2021/07/02 09:19:21;;;;;;;13.97;12.50;;;21.40;99.90;;;;;;4975643;28;20463;-67
2021/07/02 09:21:49;;;;;;;14.00;12.70;;;21.30;99.90;;;;;;4992093;28;20482;-67
2021/07/02 09:24:36;;;;;;;14.10;12.70;;;21.30;99.90;;;;;;4980600;28;20749;-67
2021/07/02 09:27:22;;;;;;;13.53;12.23;;;21.40;99.90;;;;;;4981234;28;20928;-67
2021/07/02 09:30:02;;;;;;;14.07;12.67;;;21.50;99.90;;;;;;4974194;28;20464;-67
2021/07/02 09:32:29;;;;;;;13.70;12.30;;;21.70;99.90;;;;;;4975469;28;20573;-67
2021/07/02 09:34:58;;;;;;;12.80;11.60;;;21.80;99.90;;;;;;4988850;28;20524;-68
2021/07/02 09:37:29;;;;;;;12.00;10.90;;;21.90;99.90;;;;;;4984349;28;20466;-67
2021/07/02 09:39:55;;;;;;;11.60;10.60;;;22.00;99.90;;;;;;4989761;28;20931;-68
2021/07/02 09:42:27;;;;;;;11.10;10.20;;;22.10;99.90;;;;;;4988223;28;20497;-68
2021/07/02 09:45:08;;;;;;;11.00;10.00;;;22.20;99.90;;;;;;4974909;28;20499;-68
2021/07/02 09:47:35;;;;;;;9.97;9.10;;;22.20;99.90;;;;;;4988653;28;20483;-67
2021/07/02 09:50:26;;;;;;;9.93;8.93;;;22.00;99.90;;;;;;4981943;28;20471;-67
2021/07/02 09:52:56;;;;;;;9.67;8.87;;;22.10;99.90;;;;;;4986749;28;20495;-67
2021/07/02 09:55:24;;;;;;;11.47;10.37;;;22.10;99.90;;;;;;4974357;28;20475;-67
2021/07/02 09:58:02;;;;;;;10.63;9.60;;;22.20;99.90;;;;;;4981390;28;20843;-66
2021/07/02 10:00:28;;;;;;;10.17;9.37;;;22.30;99.90;;;;;;4984333;28;20509;-68
2021/07/02 10:02:57;;;;;;;9.77;8.77;;;22.50;99.90;;;;;;4990440;28;20466;-66
2021/07/02 10:05:25;;;;;;;9.60;8.90;;;22.80;99.90;;;;;;4986935;28;20470;-67
2021/07/02 10:08:04;;;;;;;9.80;8.97;;;22.80;99.90;;;;;;4978522;28;20817;-67
2021/07/02 10:10:32;;;;;;;9.70;8.90;;;22.70;99.90;;;;;;4989428;28;20510;-67
2021/07/02 10:13:00;;;;;;;9.90;9.00;;;22.60;99.90;;;;;;4984566;28;20974;-66
2021/07/02 10:15:28;;;;;;;10.00;9.20;;;22.60;99.90;;;;;;4988582;28;20468;-66
2021/07/02 10:17:59;;;;;;;8.57;7.87;;;22.80;99.90;;;;;;4981269;28;20567;-67
2021/07/02 10:20:27;;;;;;;9.70;8.90;;;22.90;99.90;;;;;;4981434;28;20514;-67
2021/07/02 10:22:57;;;;;;;8.93;8.33;;;22.90;99.90;;;;;;4982674;28;20509;-66
2021/07/02 10:25:26;;;;;;;8.60;8.00;;;23.00;99.90;;;;;;4972704;28;20819;-67
2021/07/02 10:27:53;;;;;;;8.50;7.90;;;23.10;99.90;;;;;;4972129;28;20492;-66
2021/07/02 10:30:21;;;;;;;8.90;8.10;;;23.20;99.90;;;;;;4972592;28;20467;-66
2021/07/02 10:32:49;;;;;;;7.73;7.23;;;23.20;99.90;;;;;;4982878;28;20588;-66
2021/07/02 10:35:17;;;;;;;7.47;6.87;;;23.10;99.90;;;;;;4983070;28;20470;-66
2021/07/02 10:37:47;;;;;;;8.70;7.90;;;22.90;99.90;;;;;;4973771;28;20456;-67
2021/07/02 10:40:35;;;;;;;7.47;7.00;;;22.70;99.90;;;;;;4972400;28;20468;-66
2021/07/02 10:43:14;;;;;;;9.13;8.33;;;22.80;99.90;;;;;;4973521;28;20569;-66
2021/07/02 10:46:16;;;;;;;7.63;7.13;;;22.90;99.90;;;;;;4972178;28;20527;-66
2021/07/02 10:48:50;;;;;;;6.73;6.23;;;23.10;99.90;;;;;;4981971;28;20486;-67
2021/07/02 10:51:46;;;;;;;9.60;7.83;;;23.20;99.90;;;;;;4978223;28;20488;-66
2021/07/02 10:54:32;;;;;;;6.50;6.10;;;23.10;99.90;;;;;;4974168;28;20805;-65
2021/07/02 10:57:13;;;;;;;28.90;8.73;;;23.30;99.90;;;;;;4990819;28;20471;-67
2021/07/02 11:00:00;;;;;;;9.33;7.83;;;23.30;99.90;;;;;;4979709;28;20542;-67
2021/07/02 11:02:27;;;;;;;6.67;6.17;;;23.30;99.90;;;;;;4974645;28;20848;-68
2021/07/02 11:04:55;;;;;;;7.60;6.90;;;23.40;99.90;;;;;;4976373;28;20463;-66
2021/07/02 11:07:39;;;;;;;6.93;6.23;;;23.40;99.90;;;;;;4973682;28;20552;-67
2021/07/02 11:10:07;;;;;;;7.03;6.43;;;23.70;99.90;;;;;;4971333;28;20801;-67
2021/07/02 11:12:37;;;;;;;7.80;7.20;;;23.70;99.90;;;;;;4972336;28;20497;-67
2021/07/02 11:15:15;;;;;;;7.10;6.40;;;23.30;99.90;;;;;;4971738;28;20471;-67
2021/07/02 11:17:44;;;;;;;6.93;6.40;;;23.00;99.90;;;;;;4971345;28;20460;-67
2021/07/02 11:20:29;;;;;;;6.87;6.37;;;23.00;99.90;;;;;;4971509;28;20794;-67
2021/07/02 11:23:21;;;;;;;6.57;6.17;;;23.10;99.90;;;;;;4978306;28;20471;-68
2021/07/02 11:25:51;;;;;;;6.90;6.50;;;23.10;99.90;;;;;;4994927;28;20459;-68
2021/07/02 11:28:34;;;;;;;6.67;6.20;;;23.10;99.90;;;;;;4994276;28;20941;-67
2021/07/02 11:31:03;;;;;;;6.90;6.40;;;23.10;99.90;;;;;;4995371;28;20489;-66
2021/07/02 11:33:30;;;;;;;6.80;6.40;;;23.10;99.90;;;;;;4983298;28;20460;-65
2021/07/02 11:36:18;;;;;;;8.50;7.67;;;23.20;99.90;;;;;;4975869;28;20470;-65
2021/07/02 11:38:51;;;;;;;8.03;7.37;;;23.30;99.90;;;;;;4975672;28;20463;-66
2021/07/02 11:41:35;;;;;;;7.60;7.00;;;23.30;99.90;;;;;;4975625;28;20483;-66
2021/07/02 11:44:04;;;;;;;7.70;6.93;;;23.40;99.90;;;;;;4989455;28;20485;-66
2021/07/02 11:46:32;;;;;;;9.00;8.20;;;23.50;99.90;;;;;;4983434;28;20468;-66
2021/07/02 11:48:59;;;;;;;7.53;7.00;;;23.70;99.90;;;;;;4974970;28;20562;-66
2021/07/02 11:51:28;;;;;;;8.67;8.00;;;23.80;99.90;;;;;;4974461;28;20487;-66
2021/07/02 11:53:57;;;;;;;7.03;6.63;;;24.00;99.90;;;;;;4988003;28;20458;-66
2021/07/02 11:56:25;;;;;;;7.90;7.30;;;23.90;99.90;;;;;;4994764;28;20463;-65
2021/07/02 11:58:54;;;;;;;9.23;7.83;;;23.80;99.90;;;;;;4994662;28;20486;-65
2021/07/02 12:01:24;;;;;;;8.40;7.70;;;23.90;99.90;;;;;;4994188;28;21009;-66
2021/07/02 12:03:53;;;;;;;8.80;8.10;;;24.00;99.90;;;;;;4981105;28;20522;-66
2021/07/02 12:06:26;;;;;;;8.07;7.47;;;24.00;99.90;;;;;;4974856;28;20820;-66
2021/07/02 12:08:58;;;;;;;8.57;8.03;;;24.00;99.90;;;;;;4975270;28;20594;-66
2021/07/02 12:11:31;;;;;;;7.07;6.67;;;24.00;99.90;;;;;;4974754;28;20852;-66
2021/07/02 12:13:58;;;;;;;7.87;7.17;;;23.90;99.90;;;;;;4987324;28;20906;-66
2021/07/02 12:16:34;;;;;;;7.67;7.07;;;24.00;99.90;;;;;;4994101;28;20485;-65
2021/07/02 12:19:01;;;;;;;10.40;9.70;;;24.10;99.90;;;;;;4994463;28;20565;-65
2021/07/02 12:21:31;;;;;;;11.20;10.30;;;23.90;99.90;;;;;;4986912;28;20484;-66
2021/07/02 12:24:01;;;;;;;11.10;10.10;;;23.70;99.90;;;;;;4974206;28;20471;-67
2021/07/02 12:26:29;;;;;;;10.80;9.80;;;23.90;99.90;;;;;;4974325;28;20506;-66
2021/07/02 12:29:12;;;;;;;10.07;9.27;;;24.00;99.90;;;;;;4974172;28;20484;-65
2021/07/02 12:31:44;;;;;;;10.30;9.30;;;24.10;99.90;;;;;;4981352;28;20486;-65
2021/07/02 12:34:17;;;;;;;9.80;8.90;;;24.10;99.90;;;;;;4993212;28;20805;-65
2021/07/02 12:36:58;;;;;;;9.53;8.73;;;24.30;99.90;;;;;;4993478;28;20463;-65
2021/07/02 12:39:30;;;;;;;9.60;8.80;;;24.40;99.90;;;;;;4993821;28;20459;-66
2021/07/02 12:41:58;;;;;;;9.50;8.83;;;24.50;99.90;;;;;;4982841;28;20550;-68
2021/07/02 12:44:27;;;;;;;8.40;7.80;;;24.20;99.90;;;;;;4973456;28;20464;-66
2021/07/02 12:46:55;;;;;;;8.60;8.00;;;24.10;99.90;;;;;;4973752;28;20474;-66
2021/07/02 12:49:31;;;;;;;10.30;8.33;;;24.00;99.90;;;;;;4974206;28;20491;-66
2021/07/02 12:54:56;;;;;;;8.20;7.53;;;23.80;99.90;;;;;;4984730;28;20465;-66
2021/07/02 12:57:31;;;;;;;8.90;8.30;;;23.60;99.90;;;;;;4993511;28;20462;-65
2021/07/02 13:00:00;;;;;;;8.83;8.23;;;23.70;99.90;;;;;;4993151;28;20469;-66
2021/07/02 13:02:34;;;;;;;9.47;8.57;;;23.80;99.90;;;;;;4978160;28;20503;-66
2021/07/02 13:05:04;;;;;;;8.03;7.43;;;23.90;99.90;;;;;;4974302;28;20550;-66
2021/07/02 13:07:48;;;;;;;8.23;7.63;;;24.10;99.90;;;;;;4973395;28;20468;-68
2021/07/02 13:10:16;;;;;;;7.70;7.10;;;24.30;99.90;;;;;;4973620;28;20487;-67
2021/07/02 13:12:43;;;;;;;8.60;7.80;;;24.40;99.90;;;;;;4973333;28;20503;-67
2021/07/02 13:15:12;;;;;;;7.60;7.03;;;24.50;99.90;;;;;;4979794;28;20521;-68
2021/07/02 13:17:46;;;;;;;8.40;7.67;;;24.50;99.90;;;;;;4978736;28;20471;-67
2021/07/02 13:20:16;;;;;;;7.87;7.27;;;24.60;99.90;;;;;;4983612;28;20831;-68
2021/07/02 13:22:43;;;;;;;7.70;7.10;;;24.50;99.90;;;;;;4986246;28;20468;-67
2021/07/02 13:25:12;;;;;;;8.93;8.23;;;24.20;99.90;;;;;;4973459;28;20483;-68
2021/07/02 13:27:39;;;;;;;7.27;6.70;;;24.00;99.90;;;;;;4985657;28;20906;-67
2021/07/02 13:30:09;;;;;;;6.67;5.83;;;23.90;99.90;;;;;;4987191;28;20479;-67
2021/07/02 13:32:36;;;;;;;6.80;6.33;;;24.00;99.90;;;;;;4980219;28;20460;-67
2021/07/02 13:35:20;;;;;;;6.93;6.33;;;24.10;99.90;;;;;;4986077;28;20459;-68
2021/07/02 13:37:53;;;;;;;6.33;5.80;;;24.30;99.90;;;;;;4980290;28;20468;-68
2021/07/02 13:40:34;;;;;;;7.77;7.17;;;24.40;99.90;;;;;;4984420;28;20791;-66
2021/07/02 13:43:03;;;;;;;7.10;6.50;;;24.60;99.90;;;;;;4984320;28;20466;-66
2021/07/02 13:45:30;;;;;;;6.53;6.10;;;24.40;99.90;;;;;;4992172;28;20473;-67
2021/07/02 13:48:07;;;;;;;8.40;7.00;;;24.40;99.90;;;;;;4981093;28;20546;-67
2021/07/02 13:50:38;;;;;;;8.90;7.87;;;24.30;99.90;;;;;;4984401;28;20581;-66
2021/07/02 13:53:15;;;;;;;7.30;6.90;;;24.30;99.90;;;;;;4984221;28;20477;-67
2021/07/02 13:55:42;;;;;;;6.83;6.43;;;24.40;99.90;;;;;;4992845;28;20473;-67
2021/07/02 13:58:09;;;;;;;7.70;7.10;;;24.50;99.90;;;;;;4977318;28;20476;-67
2021/07/02 14:00:38;;;;;;;6.30;6.00;;;24.40;99.90;;;;;;4980619;28;20942;-67
2021/07/02 14:03:04;;;;;;;6.77;6.27;;;24.30;99.90;;;;;;4990682;28;20463;-67
2021/07/02 14:05:31;;;;;;;7.90;7.40;;;24.00;99.90;;;;;;4980290;28;20481;-66
2021/07/02 14:07:59;;;;;;;8.00;7.23;;;23.90;99.90;;;;;;4972280;28;20967;-67
2021/07/02 14:10:26;;;;;;;7.63;7.03;;;23.90;99.90;;;;;;4983305;28;20506;-67
2021/07/02 14:12:53;;;;;;;7.83;6.33;;;24.00;99.90;;;;;;4972268;28;20470;-66
2021/07/02 14:15:20;;;;;;;8.43;7.77;;;24.10;99.90;;;;;;4989565;28;20463;-67
2021/07/02 14:17:47;;;;;;;8.70;7.97;;;24.30;99.90;;;;;;4974546;28;20546;-67
2021/07/02 14:20:14;;;;;;;6.60;6.00;;;24.50;99.90;;;;;;4980369;28;20467;-68
2021/07/02 14:22:43;;;;;;;7.23;6.73;;;24.60;99.90;;;;;;4989315;28;20474;-67
2021/07/02 14:25:13;;;;;;;7.50;6.80;;;24.70;99.90;;;;;;4977044;28;20491;-67
2021/07/02 14:27:40;;;;;;;9.20;7.03;;;24.70;99.90;;;;;;4986774;28;20542;-67
2021/07/02 14:30:08;;;;;;;6.80;6.30;;;24.70;99.90;;;;;;4984188;28;20486;-67
2021/07/02 14:32:35;;;;;;;6.63;6.23;;;24.70;99.90;;;;;;4976571;28;20483;-67
2021/07/02 14:35:03;;;;;;;7.57;7.10;;;24.70;99.90;;;;;;4984547;28;20469;-67
2021/07/02 14:37:29;;;;;;;7.07;6.67;;;24.70;99.90;;;;;;4979057;28;20474;-67
2021/07/02 14:39:56;;;;;;;6.70;6.20;;;24.70;99.90;;;;;;4977903;28;20967;-67
2021/07/02 14:42:24;;;;;;;6.97;6.53;;;24.70;99.90;;;;;;4981439;28;20483;-67
2021/07/02 14:44:51;;;;;;;6.80;6.40;;;24.70;99.90;;;;;;4973893;28;20476;-68
2021/07/02 14:47:18;;;;;;;8.10;7.30;;;24.50;99.90;;;;;;4980585;28;20463;-67
2021/07/02 14:49:45;;;;;;;7.80;7.30;;;24.30;99.90;;;;;;4985839;28;20474;-67
2021/07/02 14:52:12;;;;;;;7.10;6.60;;;24.40;99.90;;;;;;4984238;28;20813;-67
2021/07/02 14:54:39;;;;;;;6.67;6.07;;;24.50;99.90;;;;;;4983319;28;20792;-66
2021/07/02 14:57:07;;;;;;;6.50;6.00;;;24.50;99.90;;;;;;4986754;28;20465;-67
2021/07/02 14:59:36;;;;;;;6.93;6.40;;;24.50;99.90;;;;;;4977679;28;20464;-66
2021/07/02 15:02:03;;;;;;;6.10;5.60;;;24.60;99.90;;;;;;4979173;28;20494;-65
2021/07/02 15:04:29;;;;;;;6.63;6.03;;;24.60;99.90;;;;;;4971264;28;20467;-66
2021/07/02 15:06:56;;;;;;;6.73;6.27;;;24.70;99.90;;;;;;4973481;28;20822;-67
2021/07/02 15:09:24;;;;;;;6.30;5.90;;;24.70;99.90;;;;;;4990816;28;20510;-67
2021/07/02 15:11:50;;;;;;;6.70;6.10;;;24.70;99.90;;;;;;4977094;28;20535;-67
2021/07/02 15:14:17;;;;;;;7.43;6.83;;;24.70;99.90;;;;;;4987435;28;20459;-67
2021/07/02 15:16:45;;;;;;;6.43;5.97;;;24.90;99.90;;;;;;4972413;28;20483;-67
2021/07/02 15:19:11;;;;;;;5.83;5.43;;;25.00;99.90;;;;;;4984009;28;20466;-67
2021/07/02 15:21:38;;;;;;;6.27;5.77;;;25.00;99.90;;;;;;4995970;28;20497;-67
2021/07/02 15:24:05;;;;;;;6.60;6.30;;;24.90;99.90;;;;;;4981205;28;20479;-66
2021/07/02 15:26:32;;;;;;;5.60;5.30;;;24.90;99.90;;;;;;4987264;28;20479;-66
2021/07/02 15:28:59;;;;;;;6.27;5.90;;;24.90;99.90;;;;;;4989948;28;20467;-67
2021/07/02 15:32:03;;;;;;;6.00;5.60;;;24.80;99.90;;;;;;5009116;28;20485;-67
2021/07/02 15:34:31;;;;;;;7.83;6.97;;;25.00;99.90;;;;;;4976109;28;20459;-67
2021/07/02 15:36:57;;;;;;;6.23;5.63;;;25.20;99.90;;;;;;4969677;28;20854;-67
2021/07/02 15:39:24;;;;;;;8.83;6.53;;;25.20;99.90;;;;;;4971240;28;20456;-67
2021/07/02 15:41:51;;;;;;;6.33;5.93;;;25.00;99.90;;;;;;4970854;28;20508;-67
2021/07/02 15:44:17;;;;;;;8.10;7.40;;;24.90;99.90;;;;;;4969962;28;20464;-67
2021/07/02 15:46:44;;;;;;;7.20;6.80;;;24.80;99.90;;;;;;4970062;28;20467;-67
2021/07/02 15:49:11;;;;;;;6.93;6.33;;;24.50;99.90;;;;;;4970989;28;20818;-67
2021/07/02 15:51:39;;;;;;;7.90;7.30;;;24.40;99.90;;;;;;4970454;28;20496;-67
2021/07/02 15:54:06;;;;;;;6.13;5.83;;;24.50;99.90;;;;;;4974771;28;20471;-66
2021/07/02 15:56:33;;;;;;;6.73;6.23;;;24.60;99.90;;;;;;4978681;28;20473;-66
2021/07/02 15:58:59;;;;;;;6.80;6.50;;;24.70;99.90;;;;;;4978143;28;20789;-66
2021/07/02 16:01:28;;;;;;;8.13;7.60;;;24.70;99.90;;;;;;4970102;28;20500;-66
2021/07/02 16:03:56;;;;;;;7.47;6.77;;;24.70;99.90;;;;;;4970341;28;20468;-65
2021/07/02 16:06:23;;;;;;;8.10;7.43;;;24.70;99.90;;;;;;4969875;28;20467;-66
2021/07/02 16:08:51;;;;;;;7.13;6.73;;;24.80;99.90;;;;;;4971820;28;20471;-65
2021/07/02 16:11:17;;;;;;;6.73;6.33;;;25.00;99.90;;;;;;4975140;28;20491;-66
2021/07/02 16:13:44;;;;;;;6.93;6.40;;;25.00;99.90;;;;;;4972769;28;20455;-66
2021/07/02 16:16:11;;;;;;;7.90;7.30;;;25.00;99.90;;;;;;4974252;28;20499;-66
2021/07/02 16:18:37;;;;;;;7.33;6.90;;;24.80;99.90;;;;;;4973706;28;20983;-66
2021/07/02 16:21:04;;;;;;;8.20;7.50;;;24.60;99.90;;;;;;4974152;28;20483;-66
2021/07/02 16:23:31;;;;;;;8.53;7.73;;;24.50;99.90;;;;;;4972297;28;20508;-65
2021/07/02 16:25:59;;;;;;;7.97;7.47;;;24.20;99.90;;;;;;4973808;28;20471;-65
2021/07/02 16:28:26;;;;;;;7.93;7.43;;;24.30;99.90;;;;;;4974229;28;20865;-65
2021/07/02 16:30:52;;;;;;;7.77;7.03;;;24.30;99.90;;;;;;4974501;28;21168;-66
2021/07/02 16:33:19;;;;;;;8.17;7.57;;;24.20;99.90;;;;;;4976444;28;20802;-66
2021/07/02 16:35:46;;;;;;;8.30;7.80;;;24.10;99.90;;;;;;4987660;28;21813;-66
2021/07/02 16:38:12;;;;;;;7.00;6.50;;;23.90;99.90;;;;;;4973979;28;20471;-67
2021/07/02 16:40:39;;;;;;;7.20;6.80;;;24.10;99.90;;;;;;4980790;28;20474;-66
2021/07/02 16:43:07;;;;;;;8.07;7.37;;;24.10;99.90;;;;;;4990165;28;20479;-66
2021/07/02 16:45:34;;;;;;;8.83;7.03;;;24.20;99.90;;;;;;4978948;28;20828;-68
2021/07/02 16:48:01;;;;;;;7.03;6.60;;;24.00;99.90;;;;;;4976605;28;20464;-69
2021/07/02 16:50:28;;;;;;;8.10;7.30;;;23.90;99.90;;;;;;4990438;28;20495;-68
2021/07/02 16:52:54;;;;;;;7.80;7.30;;;23.80;99.90;;;;;;4973292;28;20480;-68
2021/07/02 16:55:21;;;;;;;7.80;7.30;;;23.90;99.90;;;;;;4982330;28;20471;-68